Hauptseite
METAR-TAF:

METAR-TAF

Flughäfen :

Flughafen Groningen

Groningen, Niederlande

Breite: 53-08N, Länge: 006-35E, Höhe: 4 m

Beobachtung

Neuester Wetterbericht von vor 34 Minuten, um 15:55 UTC
Wind 5 kt aus Nordost, variierte zwischen Nord und Ost/Nordost
Temperatur 23°C
Luftfeuchtigkeit 65%
Luftdruck 1025 hPa
Sichtweite 10 km oder mehr

METAR: EHGG 231555Z AUTO 04005KT 010V070 9999 NSC 23/16 Q1025 NOSIG

Zeit: 18:29 (16:29 UTC)

Prognose

Neuester Wetterbericht von vor 5 Stunden und 11 Minuten, um 11:18 UTC
Gültige Prognose vom 23 um 12 UTC bis 24 um 18 UTC
Wind 5 kt aus Südwest
Sichtweite 10 km oder mehr
Leicht bewölkt in der Höhe von 4000 ft
Wahrscheinlichkeit 30% :
Zeitweise
vom 24 um 00 UTC bis 24 um 05 UTC
Sichtweite: 7000 m
Flacher Nebel

TAF: EHGG 231118Z 2312/2418 22005KT 9999 FEW040 PROB30 TEMPO 2400/2405 7000 MIFG

Wetterbeobachtungen und Prognosen von mehr als 4000 Flughäfen (METAR und TAF Bericht).

Die verfügbaren Stationen werden durch gelbe und rote Markierungen auf der Karte dargestellt.

Führen Sie die Maus auf sie, um den Namen der Station zu sehen.

Darauf klicken, um die Beobachtung von Wetterbeobachtungen und Prognosen zu sehen.

Um die Karte zu ändern : klicken Sie auf den grünen Tasten mit einem schwarzen Kreuz Zum Vergrößern, auf den grünen Button mit einem Gedankenstrich zu verkleinern, oder auf die grünen Pfeile für benachbarte Karten.


METAR-TAF: